PWSweather.com
Personal Weather Stations
Station Observations
GRD01
Warsaw, LesznoPL 05-084

WarsawLesznoPL 05-084

Lat: 52.257404, Lon: 20.564847

Elevation: 298

Station Type: WH3080

http://pogoda.kampinos.waw.pl

High Low Average
Temperature 78.8°F26.0°C 52.7°F11.5°C 66.4°F19.1°C
Dew Point 56.6°F13.7°C 48.0°F8.9°C 52.4°F11.3°C
Winds 9.8 mph 15.8 kmh Calm Calm 3.0 mph S4.8 kmh S
Wind Gusts 13.6 mph21.9 kmh -- 7.0 mph11.3 kmh
Humidity 90% 42% 63%
Pressure 29.63 in1003.4 mb 29.48 in998.3 mb -
Precipitation 0.00 in0.0 mm - -
Hour Temp Dew Point Humidity Winds Wind Gusts Pressure Precip Precip Rate Daily Precip Total
12:00 AM 63.9°F17.7°C 54.3°F12.4°C 71% Calm Calm 6.0 mph9.7 kmh 29.48 in998.3 mb 0.00 in0.0 mm 0.00 in0.0 mm 0.00 in0.0 mm
12:15 AM 63.5°F17.5°C 53.9°F12.2°C 71% 3.8 mph WSW6.1 kmh WSW 6.0 mph9.7 kmh 29.48 in998.3 mb 0.00 in0.0 mm 0.00 in0.0 mm 0.00 in0.0 mm
12:30 AM 63.3°F17.4°C 54.5°F12.5°C 73% 4.5 mph WSW7.2 kmh WSW 8.3 mph13.4 kmh 29.49 in998.6 mb 0.00 in0.0 mm 0.00 in0.0 mm 0.00 in0.0 mm
12:45 AM 63.1°F17.3°C 54.3°F12.4°C 73% 3.8 mph NW6.1 kmh NW 10.7 mph17.2 kmh 29.49 in998.6 mb 0.00 in0.0 mm 0.00 in0.0 mm 0.00 in0.0 mm
01:00 AM 63.0°F17.2°C 53.4°F11.9°C 71% 6.0 mph NNW9.7 kmh NNW 13.0 mph20.9 kmh 29.48 in998.3 mb 0.00 in0.0 mm 0.00 in0.0 mm 0.00 in0.0 mm
01:15 AM 62.6°F17.0°C 53.1°F11.7°C 71% 7.6 mph N12.2 kmh N 9.2 mph14.8 kmh 29.49 in998.6 mb 0.00 in0.0 mm 0.00 in0.0 mm 0.00 in0.0 mm
01:30 AM 62.2°F16.8°C 52.3°F11.3°C 70% 3.1 mph NW5.0 kmh NW 7.6 mph12.2 kmh 29.48 in998.3 mb 0.00 in0.0 mm 0.00 in0.0 mm 0.00 in0.0 mm
01:45 AM 61.7°F16.5°C 51.8°F11.0°C 70% 2.2 mph W3.5 kmh W 3.8 mph6.1 kmh 29.49 in998.6 mb 0.00 in0.0 mm 0.00 in0.0 mm 0.00 in0.0 mm
02:00 AM 60.8°F16.0°C 51.3°F10.7°C 71% Calm Calm 0.7 mph1.1 kmh 29.50 in999.0 mb 0.00 in0.0 mm 0.00 in0.0 mm 0.00 in0.0 mm
02:15 AM 59.7°F15.4°C 50.7°F10.4°C 72% Calm Calm -- 29.49 in998.6 mb 0.00 in0.0 mm 0.00 in0.0 mm 0.00 in0.0 mm
02:30 AM 58.3°F14.6°C 50.0°F10.0°C 74% 1.6 mph S2.6 kmh S 3.1 mph5.0 kmh 29.50 in999.0 mb 0.00 in0.0 mm 0.00 in0.0 mm 0.00 in0.0 mm
02:45 AM 57.7°F14.3°C 49.9°F9.9°C 75% Calm Calm 1.6 mph2.6 kmh 29.50 in999.0 mb 0.00 in0.0 mm 0.00 in0.0 mm 0.00 in0.0 mm
03:00 AM 56.8°F13.8°C 49.4°F9.7°C 76% Calm Calm -- 29.49 in998.6 mb 0.00 in0.0 mm 0.00 in0.0 mm 0.00 in0.0 mm
03:15 AM 56.1°F13.4°C 49.0°F9.4°C 77% Calm Calm 0.7 mph1.1 kmh 29.49 in998.6 mb 0.00 in0.0 mm 0.00 in0.0 mm 0.00 in0.0 mm
03:30 AM 55.4°F13.0°C 49.0°F9.4°C 79% Calm Calm 3.1 mph5.0 kmh 29.50 in999.0 mb 0.00 in0.0 mm 0.00 in0.0 mm 0.00 in0.0 mm
03:45 AM 55.2°F12.9°C 49.2°F9.6°C 80% 0.7 mph SSW1.1 kmh SSW 4.5 mph7.2 kmh 29.50 in999.0 mb 0.00 in0.0 mm 0.00 in0.0 mm 0.00 in0.0 mm
04:00 AM 55.0°F12.8°C 49.0°F9.4°C 80% Calm Calm 2.2 mph3.5 kmh 29.51 in999.3 mb 0.00 in0.0 mm 0.00 in0.0 mm 0.00 in0.0 mm
04:15 AM 54.5°F12.5°C 48.5°F9.2°C 80% Calm Calm 1.6 mph2.6 kmh 29.51 in999.3 mb 0.00 in0.0 mm 0.00 in0.0 mm 0.00 in0.0 mm
04:30 AM 53.4°F11.9°C 48.1°F8.9°C 82% Calm Calm 2.2 mph3.5 kmh 29.51 in999.3 mb 0.00 in0.0 mm 0.00 in0.0 mm 0.00 in0.0 mm
04:45 AM 53.1°F11.7°C 48.0°F8.9°C 83% Calm Calm 2.2 mph3.5 kmh 29.51 in999.3 mb 0.00 in0.0 mm 0.00 in0.0 mm 0.00 in0.0 mm
05:00 AM 52.9°F11.6°C 48.5°F9.2°C 85% 2.2 mph NE3.5 kmh NE 3.1 mph5.0 kmh 29.51 in999.3 mb 0.00 in0.0 mm 0.00 in0.0 mm 0.00 in0.0 mm
05:15 AM 52.7°F11.5°C 48.6°F9.2°C 86% Calm Calm 1.6 mph2.6 kmh 29.52 in999.7 mb 0.00 in0.0 mm 0.00 in0.0 mm 0.00 in0.0 mm
05:30 AM 53.1°F11.7°C 49.6°F9.8°C 88% Calm Calm -- 29.52 in999.7 mb 0.00 in0.0 mm 0.00 in0.0 mm 0.00 in0.0 mm
05:45 AM 54.0°F12.2°C 51.1°F10.6°C 90% 2.2 mph N3.5 kmh N 3.1 mph5.0 kmh 29.52 in999.7 mb 0.00 in0.0 mm 0.00 in0.0 mm 0.00 in0.0 mm
06:00 AM 55.8°F13.2°C 52.3°F11.3°C 88% 3.1 mph N5.0 kmh N 3.8 mph6.1 kmh 29.52 in999.7 mb 0.00 in0.0 mm 0.00 in0.0 mm 0.00 in0.0 mm
06:15 AM 57.2°F14.0°C 53.7°F12.1°C 88% 2.2 mph NNW3.5 kmh NNW 3.1 mph5.0 kmh 29.52 in999.7 mb 0.00 in0.0 mm 0.00 in0.0 mm 0.00 in0.0 mm
06:30 AM 58.5°F14.7°C 54.0°F12.2°C 85% Calm Calm 2.2 mph3.5 kmh 29.53 in1000.0 mb 0.00 in0.0 mm 0.00 in0.0 mm 0.00 in0.0 mm
06:45 AM 59.9°F15.5°C 54.4°F12.4°C 82% Calm Calm 2.2 mph3.5 kmh 29.52 in999.7 mb 0.00 in0.0 mm 0.00 in0.0 mm 0.00 in0.0 mm
07:00 AM 61.5°F16.4°C 54.6°F12.6°C 78% 0.7 mph ENE1.1 kmh ENE 3.8 mph6.1 kmh 29.52 in999.7 mb 0.00 in0.0 mm 0.00 in0.0 mm 0.00 in0.0 mm
07:15 AM 63.3°F17.4°C 54.5°F12.5°C 73% 4.5 mph NNE7.2 kmh NNE 6.9 mph11.1 kmh 29.52 in999.7 mb 0.00 in0.0 mm 0.00 in0.0 mm 0.00 in0.0 mm
07:30 AM 64.8°F18.2°C 53.5°F11.9°C 67% 3.1 mph NE5.0 kmh NE 8.3 mph13.4 kmh 29.52 in999.7 mb 0.00 in0.0 mm 0.00 in0.0 mm 0.00 in0.0 mm
07:45 AM 65.7°F18.7°C 53.6°F12.0°C 65% 3.1 mph NNE5.0 kmh NNE 7.6 mph12.2 kmh 29.53 in1000.0 mb 0.00 in0.0 mm 0.00 in0.0 mm 0.00 in0.0 mm
08:00 AM 66.0°F18.9°C 53.1°F11.7°C 63% 3.1 mph NE5.0 kmh NE 7.6 mph12.2 kmh 29.53 in1000.0 mb 0.00 in0.0 mm 0.00 in0.0 mm 0.00 in0.0 mm
08:15 AM 66.9°F19.4°C 53.9°F12.2°C 63% 9.2 mph NE14.8 kmh NE 11.4 mph18.3 kmh 29.53 in1000.0 mb 0.00 in0.0 mm 0.00 in0.0 mm 0.00 in0.0 mm
08:30 AM 66.7°F19.3°C 53.7°F12.1°C 63% 3.1 mph NE5.0 kmh NE 7.6 mph12.2 kmh 29.53 in1000.0 mb 0.00 in0.0 mm 0.00 in0.0 mm 0.00 in0.0 mm
08:45 AM 67.5°F19.7°C 54.4°F12.4°C 63% 4.5 mph NNE7.2 kmh NNE 9.2 mph14.8 kmh 29.52 in999.7 mb 0.00 in0.0 mm 0.00 in0.0 mm 0.00 in0.0 mm
09:00 AM 69.6°F20.9°C 55.6°F13.1°C 61% 6.9 mph ENE11.1 kmh ENE 9.2 mph14.8 kmh 29.52 in999.7 mb 0.00 in0.0 mm 0.00 in0.0 mm 0.00 in0.0 mm
09:15 AM 72.5°F22.5°C 53.9°F12.2°C 52% 6.0 mph E9.7 kmh E 9.8 mph15.8 kmh 29.52 in999.7 mb 0.00 in0.0 mm 0.00 in0.0 mm 0.00 in0.0 mm
09:30 AM 73.8°F23.2°C 54.0°F12.2°C 50% 5.4 mph NE8.7 kmh NE 8.3 mph13.4 kmh 29.52 in999.7 mb 0.00 in0.0 mm 0.00 in0.0 mm 0.00 in0.0 mm
09:45 AM 73.8°F23.2°C 53.4°F11.9°C 49% 4.5 mph ENE7.2 kmh ENE 11.4 mph18.3 kmh 29.52 in999.7 mb 0.00 in0.0 mm 0.00 in0.0 mm 0.00 in0.0 mm
10:00 AM 74.1°F23.4°C 54.3°F12.4°C 50% 7.6 mph SE12.2 kmh SE 11.4 mph18.3 kmh 29.52 in999.7 mb 0.00 in0.0 mm 0.00 in0.0 mm 0.00 in0.0 mm
10:15 AM 73.2°F22.9°C 51.8°F11.0°C 47% 9.8 mph SE15.8 kmh SE 13.6 mph21.9 kmh 29.51 in999.3 mb 0.00 in0.0 mm 0.00 in0.0 mm 0.00 in0.0 mm
10:30 AM 72.7°F22.6°C 52.4°F11.3°C 49% 8.3 mph SE13.4 kmh SE 11.4 mph18.3 kmh 29.51 in999.3 mb 0.00 in0.0 mm 0.00 in0.0 mm 0.00 in0.0 mm
10:45 AM 73.6°F23.1°C 53.2°F11.8°C 49% 2.2 mph E3.5 kmh E 12.1 mph19.5 kmh 29.52 in999.7 mb 0.00 in0.0 mm 0.00 in0.0 mm 0.00 in0.0 mm
11:00 AM 74.1°F23.4°C 53.7°F12.1°C 49% 5.4 mph SE8.7 kmh SE 9.2 mph14.8 kmh 29.51 in999.3 mb 0.00 in0.0 mm 0.00 in0.0 mm 0.00 in0.0 mm
11:15 AM 75.0°F23.9°C 52.8°F11.6°C 46% 7.6 mph E12.2 kmh E 12.1 mph19.5 kmh 29.50 in999.0 mb 0.00 in0.0 mm 0.00 in0.0 mm 0.00 in0.0 mm
11:30 AM 75.6°F24.2°C 53.3°F11.8°C 46% 7.6 mph SSE12.2 kmh SSE 13.0 mph20.9 kmh 29.50 in999.0 mb 0.00 in0.0 mm 0.00 in0.0 mm 0.00 in0.0 mm
11:45 AM 75.9°F24.4°C 53.0°F11.7°C 45% 2.2 mph SSE3.5 kmh SSE 10.7 mph17.2 kmh 29.50 in999.0 mb 0.00 in0.0 mm 0.00 in0.0 mm 0.00 in0.0 mm
12:00 PM 76.1°F24.5°C 54.4°F12.4°C 47% 4.5 mph SSE7.2 kmh SSE 9.8 mph15.8 kmh 29.50 in999.0 mb 0.00 in0.0 mm 0.00 in0.0 mm 0.00 in0.0 mm
12:15 PM 76.1°F24.5°C 53.2°F11.8°C 45% 3.8 mph SSE6.1 kmh SSE 10.7 mph17.2 kmh 29.50 in999.0 mb 0.00 in0.0 mm 0.00 in0.0 mm 0.00 in0.0 mm
12:30 PM 75.4°F24.1°C 54.3°F12.4°C 48% 1.6 mph E2.6 kmh E 3.8 mph6.1 kmh 29.50 in999.0 mb 0.00 in0.0 mm 0.00 in0.0 mm 0.00 in0.0 mm
12:45 PM 74.7°F23.7°C 54.8°F12.7°C 50% 1.6 mph SSW2.6 kmh SSW 3.1 mph5.0 kmh 29.50 in999.0 mb 0.00 in0.0 mm 0.00 in0.0 mm 0.00 in0.0 mm
01:00 PM 76.1°F24.5°C 56.1°F13.4°C 50% 3.1 mph SW5.0 kmh SW 6.0 mph9.7 kmh 29.49 in998.6 mb 0.00 in0.0 mm 0.00 in0.0 mm 0.00 in0.0 mm
01:15 PM 77.2°F25.1°C 56.0°F13.3°C 48% 1.6 mph SW2.6 kmh SW 6.9 mph11.1 kmh 29.49 in998.6 mb 0.00 in0.0 mm 0.00 in0.0 mm 0.00 in0.0 mm
01:30 PM 77.9°F25.5°C 54.8°F12.7°C 45% 2.2 mph S3.5 kmh S 7.6 mph12.2 kmh 29.49 in998.6 mb 0.00 in0.0 mm 0.00 in0.0 mm 0.00 in0.0 mm
01:45 PM 78.8°F26.0°C 54.4°F12.4°C 43% 3.1 mph NE5.0 kmh NE 6.9 mph11.1 kmh 29.49 in998.6 mb 0.00 in0.0 mm 0.00 in0.0 mm 0.00 in0.0 mm
02:00 PM 78.6°F25.9°C 54.2°F12.3°C 43% 0.7 mph SW1.1 kmh SW 13.0 mph20.9 kmh 29.48 in998.3 mb 0.00 in0.0 mm 0.00 in0.0 mm 0.00 in0.0 mm
02:15 PM 77.9°F25.5°C 54.8°F12.7°C 45% 5.4 mph WSW8.7 kmh WSW 12.1 mph19.5 kmh 29.49 in998.6 mb 0.00 in0.0 mm 0.00 in0.0 mm 0.00 in0.0 mm
02:30 PM 77.7°F25.4°C 54.1°F12.3°C 44% 6.0 mph SSW9.7 kmh SSW 12.1 mph19.5 kmh 29.48 in998.3 mb 0.00 in0.0 mm 0.00 in0.0 mm 0.00 in0.0 mm
02:45 PM 77.2°F25.1°C 53.6°F12.0°C 44% 5.4 mph SSW8.7 kmh SSW 9.2 mph14.8 kmh 29.48 in998.3 mb 0.00 in0.0 mm 0.00 in0.0 mm 0.00 in0.0 mm
03:00 PM 77.5°F25.3°C 53.9°F12.2°C 44% 5.4 mph SW8.7 kmh SW 9.8 mph15.8 kmh 29.48 in998.3 mb 0.00 in0.0 mm 0.00 in0.0 mm 0.00 in0.0 mm
03:15 PM 77.4°F25.2°C 52.5°F11.4°C 42% 5.4 mph SSW8.7 kmh SSW 10.7 mph17.2 kmh 29.48 in998.3 mb 0.00 in0.0 mm 0.00 in0.0 mm 0.00 in0.0 mm
03:30 PM 77.0°F25.0°C 52.1°F11.2°C 42% 4.5 mph WSW7.2 kmh WSW 10.7 mph17.2 kmh 29.48 in998.3 mb 0.00 in0.0 mm 0.00 in0.0 mm 0.00 in0.0 mm
03:45 PM 76.5°F24.7°C 52.3°F11.3°C 43% 4.5 mph WSW7.2 kmh WSW 9.8 mph15.8 kmh 29.48 in998.3 mb 0.00 in0.0 mm 0.00 in0.0 mm 0.00 in0.0 mm
04:00 PM 76.6°F24.8°C 51.8°F11.0°C 42% 6.9 mph WSW11.1 kmh WSW 10.7 mph17.2 kmh 29.49 in998.6 mb 0.00 in0.0 mm 0.00 in0.0 mm 0.00 in0.0 mm
04:15 PM 76.6°F24.8°C 53.7°F12.1°C 45% 5.4 mph WSW8.7 kmh WSW 12.1 mph19.5 kmh 29.49 in998.6 mb 0.00 in0.0 mm 0.00 in0.0 mm 0.00 in0.0 mm
04:30 PM 75.9°F24.4°C 53.0°F11.7°C 45% 4.5 mph WNW7.2 kmh WNW 9.8 mph15.8 kmh 29.50 in999.0 mb 0.00 in0.0 mm 0.00 in0.0 mm 0.00 in0.0 mm
04:45 PM 75.2°F24.0°C 53.0°F11.7°C 46% 3.1 mph W5.0 kmh W 9.8 mph15.8 kmh 29.49 in998.6 mb 0.00 in0.0 mm 0.00 in0.0 mm 0.00 in0.0 mm
05:00 PM 74.5°F23.6°C 54.1°F12.3°C 49% 3.8 mph W6.1 kmh W 10.7 mph17.2 kmh 29.50 in999.0 mb 0.00 in0.0 mm 0.00 in0.0 mm 0.00 in0.0 mm
05:15 PM 73.8°F23.2°C 54.0°F12.2°C 50% 3.8 mph WNW6.1 kmh WNW 8.3 mph13.4 kmh 29.50 in999.0 mb 0.00 in0.0 mm 0.00 in0.0 mm 0.00 in0.0 mm
05:30 PM 73.0°F22.8°C 53.3°F11.8°C 50% 4.5 mph W7.2 kmh W 9.2 mph14.8 kmh 29.50 in999.0 mb 0.00 in0.0 mm 0.00 in0.0 mm 0.00 in0.0 mm
05:45 PM 71.6°F22.0°C 56.5°F13.6°C 59% 3.1 mph NW5.0 kmh NW 9.2 mph14.8 kmh 29.51 in999.3 mb 0.00 in0.0 mm 0.00 in0.0 mm 0.00 in0.0 mm
06:00 PM 70.7°F21.5°C 56.6°F13.7°C 61% 2.2 mph WNW3.5 kmh WNW 7.6 mph12.2 kmh 29.52 in999.7 mb 0.00 in0.0 mm 0.00 in0.0 mm 0.00 in0.0 mm
06:15 PM 70.0°F21.1°C 55.9°F13.3°C 61% 3.8 mph WNW6.1 kmh WNW 7.6 mph12.2 kmh 29.52 in999.7 mb 0.00 in0.0 mm 0.00 in0.0 mm 0.00 in0.0 mm
06:30 PM 69.1°F20.6°C 54.6°F12.6°C 60% 5.4 mph WNW8.7 kmh WNW 7.6 mph12.2 kmh 29.52 in999.7 mb 0.00 in0.0 mm 0.00 in0.0 mm 0.00 in0.0 mm
06:45 PM 68.4°F20.2°C 53.9°F12.2°C 60% 5.4 mph NW8.7 kmh NW 7.6 mph12.2 kmh 29.53 in1000.0 mb 0.00 in0.0 mm 0.00 in0.0 mm 0.00 in0.0 mm
07:00 PM 67.5°F19.7°C 53.5°F11.9°C 61% 7.6 mph N12.2 kmh N 8.3 mph13.4 kmh 29.54 in1000.3 mb 0.00 in0.0 mm 0.00 in0.0 mm 0.00 in0.0 mm
07:15 PM 66.9°F19.4°C 52.6°F11.4°C 60% 6.0 mph NW9.7 kmh NW 9.8 mph15.8 kmh 29.55 in1000.7 mb 0.00 in0.0 mm 0.00 in0.0 mm 0.00 in0.0 mm
07:30 PM 66.2°F19.0°C 51.9°F11.1°C 60% 4.5 mph NNW7.2 kmh NNW 7.6 mph12.2 kmh 29.55 in1000.7 mb 0.00 in0.0 mm 0.00 in0.0 mm 0.00 in0.0 mm
07:45 PM 65.5°F18.6°C 51.7°F10.9°C 61% 2.2 mph N3.5 kmh N 5.4 mph8.7 kmh 29.56 in1001.0 mb 0.00 in0.0 mm 0.00 in0.0 mm 0.00 in0.0 mm
08:00 PM 64.8°F18.2°C 51.0°F10.6°C 61% 1.6 mph WNW2.6 kmh WNW 3.1 mph5.0 kmh 29.57 in1001.4 mb 0.00 in0.0 mm 0.00 in0.0 mm 0.00 in0.0 mm
08:15 PM 64.0°F17.8°C 50.8°F10.4°C 62% Calm Calm 3.1 mph5.0 kmh 29.57 in1001.4 mb 0.00 in0.0 mm 0.00 in0.0 mm 0.00 in0.0 mm
08:30 PM 63.0°F17.2°C 51.8°F11.0°C 67% 3.1 mph W5.0 kmh W 3.8 mph6.1 kmh 29.59 in1002.0 mb 0.00 in0.0 mm 0.00 in0.0 mm 0.00 in0.0 mm
08:45 PM 62.2°F16.8°C 51.9°F11.1°C 69% 2.2 mph WNW3.5 kmh WNW 4.5 mph7.2 kmh 29.58 in1001.7 mb 0.00 in0.0 mm 0.00 in0.0 mm 0.00 in0.0 mm
09:00 PM 61.5°F16.4°C 51.6°F10.9°C 70% 1.6 mph NNW2.6 kmh NNW 3.8 mph6.1 kmh 29.59 in1002.0 mb 0.00 in0.0 mm 0.00 in0.0 mm 0.00 in0.0 mm
09:15 PM 60.8°F16.0°C 51.3°F10.7°C 71% 3.1 mph W5.0 kmh W 6.9 mph11.1 kmh 29.60 in1002.4 mb 0.00 in0.0 mm 0.00 in0.0 mm 0.00 in0.0 mm
09:30 PM 60.4°F15.8°C 51.4°F10.8°C 72% 2.2 mph NW3.5 kmh NW 4.5 mph7.2 kmh 29.60 in1002.4 mb 0.00 in0.0 mm 0.00 in0.0 mm 0.00 in0.0 mm
09:45 PM 59.9°F15.5°C 50.8°F10.4°C 72% Calm Calm 2.2 mph3.5 kmh 29.60 in1002.4 mb 0.00 in0.0 mm 0.00 in0.0 mm 0.00 in0.0 mm
10:00 PM 59.0°F15.0°C 50.4°F10.2°C 73% Calm Calm -- 29.61 in1002.7 mb 0.00 in0.0 mm 0.00 in0.0 mm 0.00 in0.0 mm
10:15 PM 58.1°F14.5°C 49.9°F9.9°C 74% 1.6 mph N2.6 kmh N 3.8 mph6.1 kmh 29.61 in1002.7 mb 0.00 in0.0 mm 0.00 in0.0 mm 0.00 in0.0 mm
10:30 PM 57.4°F14.1°C 49.9°F9.9°C 76% 2.2 mph NW3.5 kmh NW 4.5 mph7.2 kmh 29.62 in1003.0 mb 0.00 in0.0 mm 0.00 in0.0 mm 0.00 in0.0 mm
10:45 PM 57.0°F13.9°C 49.5°F9.7°C 76% 2.2 mph NW3.5 kmh NW 6.9 mph11.1 kmh 29.62 in1003.0 mb 0.00 in0.0 mm 0.00 in0.0 mm 0.00 in0.0 mm
11:00 PM 57.2°F14.0°C 49.3°F9.6°C 75% 0.7 mph W1.1 kmh W 5.4 mph8.7 kmh 29.63 in1003.4 mb 0.00 in0.0 mm 0.00 in0.0 mm 0.00 in0.0 mm
11:15 PM 57.0°F13.9°C 48.8°F9.3°C 74% Calm Calm 2.2 mph3.5 kmh 29.63 in1003.4 mb 0.00 in0.0 mm 0.00 in0.0 mm 0.00 in0.0 mm
11:30 PM 56.5°F13.6°C 48.3°F9.1°C 74% 0.7 mph S1.1 kmh S 1.6 mph2.6 kmh 29.63 in1003.4 mb 0.00 in0.0 mm 0.00 in0.0 mm 0.00 in0.0 mm
11:45 PM 55.9°F13.3°C 48.1°F8.9°C 75% Calm Calm 1.6 mph2.6 kmh 29.63 in1003.4 mb 0.00 in0.0 mm 0.00 in0.0 mm 0.00 in0.0 mm